sensor_id;sensor_type;location;lat;lon;timestamp;P1;durP1;ratioP1;P2;durP2;ratioP2
10440;SDS011;5268;49.346;9.522;2023-02-14T04:09:42;26.73;;;16.48;;
10440;SDS011;5268;49.346;9.522;2023-02-14T04:14:45;24.87;;;15.73;;
10440;SDS011;5268;49.346;9.522;2023-02-14T04:19:47;25.90;;;15.73;;
10440;SDS011;5268;49.346;9.522;2023-02-14T04:24:50;24.00;;;15.20;;
10440;SDS011;5268;49.346;9.522;2023-02-14T04:29:53;23.67;;;14.93;;
10440;SDS011;5268;49.346;9.522;2023-02-14T04:34:55;23.90;;;15.02;;
10440;SDS011;5268;49.346;9.522;2023-02-14T04:39:59;23.67;;;14.48;;
10440;SDS011;5268;49.346;9.522;2023-02-14T04:45:01;23.02;;;15.13;;
10440;SDS011;5268;49.346;9.522;2023-02-14T04:50:04;21.33;;;14.18;;
10440;SDS011;5268;49.346;9.522;2023-02-14T04:55:08;21.08;;;13.35;;
10440;SDS011;5268;49.346;9.522;2023-02-14T05:00:11;21.58;;;14.43;;
10440;SDS011;5268;49.346;9.522;2023-02-14T05:05:14;22.60;;;14.30;;
10440;SDS011;5268;49.346;9.522;2023-02-14T05:10:17;19.92;;;13.10;;
10440;SDS011;5268;49.346;9.522;2023-02-14T05:15:19;23.40;;;15.50;;
10440;SDS011;5268;49.346;9.522;2023-02-14T05:20:21;22.73;;;13.48;;
10440;SDS011;5268;49.346;9.522;2023-02-14T05:25:25;18.17;;;11.18;;
10440;SDS011;5268;49.346;9.522;2023-02-14T05:30:27;19.98;;;13.25;;
10440;SDS011;5268;49.346;9.522;2023-02-14T05:35:29;16.73;;;10.05;;
10440;SDS011;5268;49.346;9.522;2023-02-14T05:40:33;21.55;;;12.93;;
10440;SDS011;5268;49.346;9.522;2023-02-14T05:45:35;19.95;;;12.70;;
10440;SDS011;5268;49.346;9.522;2023-02-14T05:50:37;20.30;;;12.75;;
10440;SDS011;5268;49.346;9.522;2023-02-14T05:55:42;23.25;;;14.38;;
10440;SDS011;5268;49.346;9.522;2023-02-14T06:00:44;20.70;;;13.15;;
10440;SDS011;5268;49.346;9.522;2023-02-14T06:05:46;21.05;;;13.55;;
10440;SDS011;5268;49.346;9.522;2023-02-14T06:10:50;22.42;;;13.57;;
10440;SDS011;5268;49.346;9.522;2023-02-14T06:15:53;19.23;;;12.32;;
10440;SDS011;5268;49.346;9.522;2023-02-14T06:21:03;21.80;;;13.70;;
10440;SDS011;5268;49.346;9.522;2023-02-14T07:01:00;17.33;;;11.32;;
10440;SDS011;5268;49.346;9.522;2023-02-14T09:34:06;16.50;;;11.32;;
10440;SDS011;5268;49.346;9.522;2023-02-14T09:39:58;15.75;;;10.63;;
10440;SDS011;5268;49.346;9.522;2023-02-14T09:57:40;18.75;;;12.30;;
10440;SDS011;5268;49.346;9.522;2023-02-14T10:08:58;16.35;;;11.23;;
10440;SDS011;5268;49.346;9.522;2023-02-14T10:30:48;16.98;;;11.98;;
10440;SDS011;5268;49.346;9.522;2023-02-14T10:36:33;16.08;;;10.63;;
10440;SDS011;5268;49.346;9.522;2023-02-14T10:48:20;18.27;;;12.15;;
10440;SDS011;5268;49.346;9.522;2023-02-14T11:58:51;15.73;;;11.18;;
10440;SDS011;5268;49.346;9.522;2023-02-14T12:10:19;17.02;;;11.70;;
10440;SDS011;5268;49.346;9.522;2023-02-14T12:33:55;17.30;;;12.55;;
10440;SDS011;5268;49.346;9.522;2023-02-14T12:40:17;17.48;;;12.10;;
10440;SDS011;5268;49.346;9.522;2023-02-14T12:52:27;15.77;;;11.43;;
10440;SDS011;5268;49.346;9.522;2023-02-14T13:46:14;18.50;;;12.55;;
10440;SDS011;5268;49.346;9.522;2023-02-14T13:51:18;16.80;;;12.38;;
10440;SDS011;5268;49.346;9.522;2023-02-14T13:56:31;16.73;;;12.40;;
10440;SDS011;5268;49.346;9.522;2023-02-14T14:01:37;17.40;;;12.27;;
10440;SDS011;5268;49.346;9.522;2023-02-14T14:17:45;17.25;;;11.95;;
10440;SDS011;5268;49.346;9.522;2023-02-14T14:22:50;14.52;;;11.15;;
10440;SDS011;5268;49.346;9.522;2023-02-14T14:27:55;14.90;;;10.48;;
10440;SDS011;5268;49.346;9.522;2023-02-14T14:33:12;14.32;;;10.70;;
10440;SDS011;5268;49.346;9.522;2023-02-14T14:38:14;14.32;;;10.45;;
10440;SDS011;5268;49.346;9.522;2023-02-14T14:43:23;14.80;;;11.02;;
10440;SDS011;5268;49.346;9.522;2023-02-14T14:48:29;15.88;;;11.32;;
10440;SDS011;5268;49.346;9.522;2023-02-14T14:53:36;13.07;;;10.25;;
10440;SDS011;5268;49.346;9.522;2023-02-14T14:58:43;14.88;;;11.05;;
10440;SDS011;5268;49.346;9.522;2023-02-14T15:03:47;14.77;;;10.90;;
10440;SDS011;5268;49.346;9.522;2023-02-14T15:08:49;15.30;;;10.55;;
10440;SDS011;5268;49.346;9.522;2023-02-14T15:13:51;15.85;;;11.07;;
10440;SDS011;5268;49.346;9.522;2023-02-14T15:18:56;14.48;;;11.15;;
10440;SDS011;5268;49.346;9.522;2023-02-14T15:24:01;15.40;;;11.43;;
10440;SDS011;5268;49.346;9.522;2023-02-14T15:29:06;15.80;;;11.48;;
10440;SDS011;5268;49.346;9.522;2023-02-14T15:34:09;15.30;;;11.50;;
10440;SDS011;5268;49.346;9.522;2023-02-14T15:39:14;16.20;;;12.13;;
10440;SDS011;5268;49.346;9.522;2023-02-14T15:44:21;18.65;;;12.15;;
10440;SDS011;5268;49.346;9.522;2023-02-14T15:49:27;18.27;;;11.70;;
10440;SDS011;5268;49.346;9.522;2023-02-14T15:54:35;16.25;;;11.57;;
10440;SDS011;5268;49.346;9.522;2023-02-14T15:59:38;19.42;;;12.27;;
10440;SDS011;5268;49.346;9.522;2023-02-14T16:04:44;14.48;;;11.20;;
10440;SDS011;5268;49.346;9.522;2023-02-14T16:09:46;14.93;;;11.20;;
10440;SDS011;5268;49.346;9.522;2023-02-14T16:14:57;13.43;;;9.82;;
10440;SDS011;5268;49.346;9.522;2023-02-14T16:20:24;11.60;;;8.80;;
10440;SDS011;5268;49.346;9.522;2023-02-14T16:25:29;14.15;;;10.98;;
10440;SDS011;5268;49.346;9.522;2023-02-14T16:30:32;14.60;;;10.75;;
10440;SDS011;5268;49.346;9.522;2023-02-14T16:35:43;16.13;;;11.25;;
10440;SDS011;5268;49.346;9.522;2023-02-14T16:40:47;17.98;;;11.65;;
10440;SDS011;5268;49.346;9.522;2023-02-14T16:45:51;15.90;;;11.40;;
10440;SDS011;5268;49.346;9.522;2023-02-14T16:50:56;15.10;;;11.35;;
10440;SDS011;5268;49.346;9.522;2023-02-14T16:55:59;14.90;;;11.10;;
10440;SDS011;5268;49.346;9.522;2023-02-14T17:01:02;15.73;;;11.65;;
10440;SDS011;5268;49.346;9.522;2023-02-14T17:06:19;16.20;;;11.88;;
10440;SDS011;5268;49.346;9.522;2023-02-14T17:11:27;15.55;;;10.95;;
10440;SDS011;5268;49.346;9.522;2023-02-14T17:16:33;17.38;;;11.88;;
10440;SDS011;5268;49.346;9.522;2023-02-14T17:21:37;18.33;;;13.07;;
10440;SDS011;5268;49.346;9.522;2023-02-14T17:26:40;23.88;;;14.63;;
10440;SDS011;5268;49.346;9.522;2023-02-14T17:31:43;18.90;;;13.38;;
10440;SDS011;5268;49.346;9.522;2023-02-14T17:36:47;16.80;;;12.05;;
10440;SDS011;5268;49.346;9.522;2023-02-14T17:41:54;22.77;;;15.18;;
10440;SDS011;5268;49.346;9.522;2023-02-14T17:46:56;20.30;;;13.63;;
10440;SDS011;5268;49.346;9.522;2023-02-14T17:52:02;18.38;;;12.63;;
10440;SDS011;5268;49.346;9.522;2023-02-14T17:57:06;20.50;;;13.57;;
10440;SDS011;5268;49.346;9.522;2023-02-14T18:02:08;20.67;;;14.63;;
10440;SDS011;5268;49.346;9.522;2023-02-14T18:07:11;21.58;;;14.15;;
10440;SDS011;5268;49.346;9.522;2023-02-14T18:12:13;20.05;;;13.45;;
10440;SDS011;5268;49.346;9.522;2023-02-14T18:17:20;18.45;;;12.25;;
10440;SDS011;5268;49.346;9.522;2023-02-14T18:22:27;19.63;;;13.43;;
10440;SDS011;5268;49.346;9.522;2023-02-14T18:27:31;20.50;;;13.75;;
10440;SDS011;5268;49.346;9.522;2023-02-14T18:32:37;25.70;;;15.32;;
10440;SDS011;5268;49.346;9.522;2023-02-14T18:37:41;26.60;;;15.38;;
10440;SDS011;5268;49.346;9.522;2023-02-14T18:42:44;18.33;;;11.55;;
10440;SDS011;5268;49.346;9.522;2023-02-14T18:47:48;17.15;;;11.82;;
10440;SDS011;5268;49.346;9.522;2023-02-14T18:52:54;17.65;;;12.02;;
10440;SDS011;5268;49.346;9.522;2023-02-14T18:57:58;18.15;;;12.05;;
10440;SDS011;5268;49.346;9.522;2023-02-14T19:03:02;16.52;;;11.43;;
10440;SDS011;5268;49.346;9.522;2023-02-14T19:08:08;18.00;;;12.20;;
10440;SDS011;5268;49.346;9.522;2023-02-14T19:13:12;20.10;;;12.77;;
10440;SDS011;5268;49.346;9.522;2023-02-14T19:18:19;18.60;;;12.13;;
10440;SDS011;5268;49.346;9.522;2023-02-14T19:23:24;19.10;;;12.57;;
10440;SDS011;5268;49.346;9.522;2023-02-14T19:28:26;22.48;;;14.95;;
10440;SDS011;5268;49.346;9.522;2023-02-14T19:33:28;22.30;;;14.52;;
10440;SDS011;5268;49.346;9.522;2023-02-14T19:38:32;25.17;;;16.13;;
10440;SDS011;5268;49.346;9.522;2023-02-14T19:43:34;24.10;;;17.35;;
10440;SDS011;5268;49.346;9.522;2023-02-14T19:48:38;22.80;;;14.82;;
10440;SDS011;5268;49.346;9.522;2023-02-14T19:53:42;21.63;;;14.00;;
10440;SDS011;5268;49.346;9.522;2023-02-14T19:58:47;20.25;;;14.10;;
10440;SDS011;5268;49.346;9.522;2023-02-14T20:03:50;22.30;;;12.80;;
10440;SDS011;5268;49.346;9.522;2023-02-14T20:08:54;20.40;;;13.15;;
10440;SDS011;5268;49.346;9.522;2023-02-14T20:13:56;23.08;;;15.60;;
10440;SDS011;5268;49.346;9.522;2023-02-14T20:18:59;20.42;;;14.45;;
10440;SDS011;5268;49.346;9.522;2023-02-14T20:24:03;29.17;;;20.35;;
10440;SDS011;5268;49.346;9.522;2023-02-14T20:29:06;19.58;;;12.85;;
10440;SDS011;5268;49.346;9.522;2023-02-14T20:34:11;21.80;;;14.57;;
10440;SDS011;5268;49.346;9.522;2023-02-14T20:39:14;21.40;;;15.32;;
10440;SDS011;5268;49.346;9.522;2023-02-14T20:44:17;20.33;;;13.80;;
10440;SDS011;5268;49.346;9.522;2023-02-14T20:49:21;22.85;;;13.15;;
10440;SDS011;5268;49.346;9.522;2023-02-14T20:54:26;20.67;;;14.00;;
10440;SDS011;5268;49.346;9.522;2023-02-14T20:59:29;25.58;;;17.40;;
10440;SDS011;5268;49.346;9.522;2023-02-14T21:04:31;20.15;;;13.35;;
10440;SDS011;5268;49.346;9.522;2023-02-14T21:09:34;21.10;;;14.15;;
10440;SDS011;5268;49.346;9.522;2023-02-14T21:14:37;19.55;;;13.55;;
10440;SDS011;5268;49.346;9.522;2023-02-14T21:19:39;19.48;;;13.60;;
10440;SDS011;5268;49.346;9.522;2023-02-14T21:24:43;18.60;;;12.65;;
10440;SDS011;5268;49.346;9.522;2023-02-14T21:29:44;19.17;;;12.93;;
10440;SDS011;5268;49.346;9.522;2023-02-14T21:34:46;19.73;;;13.05;;
10440;SDS011;5268;49.346;9.522;2023-02-14T21:39:50;18.80;;;12.73;;
10440;SDS011;5268;49.346;9.522;2023-02-14T21:44:52;19.10;;;12.20;;
10440;SDS011;5268;49.346;9.522;2023-02-14T21:50:14;20.13;;;13.27;;
10440;SDS011;5268;49.346;9.522;2023-02-14T21:55:33;20.25;;;12.27;;
10440;SDS011;5268;49.346;9.522;2023-02-14T22:00:37;17.23;;;11.90;;
10440;SDS011;5268;49.346;9.522;2023-02-14T22:05:39;19.00;;;12.95;;
10440;SDS011;5268;49.346;9.522;2023-02-14T22:10:43;16.13;;;11.43;;
10440;SDS011;5268;49.346;9.522;2023-02-14T22:15:44;18.50;;;12.60;;
10440;SDS011;5268;49.346;9.522;2023-02-14T22:20:46;20.10;;;14.38;;
10440;SDS011;5268;49.346;9.522;2023-02-14T22:25:50;18.88;;;12.70;;
10440;SDS011;5268;49.346;9.522;2023-02-14T22:30:51;20.30;;;13.77;;
10440;SDS011;5268;49.346;9.522;2023-02-14T22:35:54;24.55;;;16.45;;
10440;SDS011;5268;49.346;9.522;2023-02-14T22:41:02;20.33;;;13.40;;
10440;SDS011;5268;49.346;9.522;2023-02-14T22:46:05;20.40;;;14.48;;
10440;SDS011;5268;49.346;9.522;2023-02-14T22:51:09;18.83;;;12.35;;
